Time;durP1;ratioP1;P1;durP2;ratioP2;P2;SDS_P1;SDS_P2;PMS_P1;PMS_P2;Temp;Humidity;BMP_temperature;BMP_pressure;BME280_temperature;BME280_humidity;BME280_pressure;Samples;Min_cycle;Max_cycle;Signal;HPM_P1;HPM_P2
2021/07/12 00:01:45;;;;;;;4.97;3.63;;;;;;;19.00;82.63;96189.72;5013762;28;20279;-64
2021/07/12 00:04:11;;;;;;;3.67;3.37;;;;;;;18.99;82.56;96188.09;5013980;28;20196;-64
2021/07/12 00:06:37;;;;;;;5.13;3.97;;;;;;;18.97;82.28;96184.94;5014038;28;20212;-64
2021/07/12 00:09:04;;;;;;;3.47;3.17;;;;;;;18.95;82.42;96189.75;5013997;28;20436;-64
2021/07/12 00:11:29;;;;;;;3.37;3.17;;;;;;;18.90;82.68;96181.81;5022830;28;20194;-64
2021/07/12 00:13:55;;;;;;;4.03;3.73;;;;;;;18.90;82.73;96179.94;5027535;28;20438;-64
2021/07/12 00:16:20;;;;;;;6.30;3.47;;;;;;;18.90;82.49;96179.13;5033605;28;20242;-64
2021/07/12 00:18:46;;;;;;;3.87;3.57;;;;;;;18.87;82.62;96177.84;5033512;28;20176;-64
2021/07/12 00:21:11;;;;;;;4.23;3.90;;;;;;;18.90;82.14;96174.63;5033349;28;20176;-64
2021/07/12 00:23:36;;;;;;;4.03;3.63;;;;;;;18.90;81.90;96163.97;5032978;28;20200;-64
2021/07/12 00:26:03;;;;;;;3.80;3.50;;;;;;;18.81;82.18;96172.84;5032193;28;20172;-64
2021/07/12 00:28:30;;;;;;;3.70;3.50;;;;;;;18.81;81.97;96167.53;5023448;28;20211;-64
2021/07/12 00:30:55;;;;;;;3.57;3.27;;;;;;;18.77;81.94;96171.84;5013864;28;20414;-64
2021/07/12 00:33:21;;;;;;;4.00;3.67;;;;;;;18.76;82.13;96170.25;5013138;28;20415;-63
2021/07/12 00:35:46;;;;;;;3.77;3.47;;;;;;;18.73;82.24;96165.50;5013696;28;20196;-63
2021/07/12 00:38:11;;;;;;;4.00;3.70;;;;;;;18.75;81.98;96158.00;5013764;28;20536;-64
2021/07/12 00:40:37;;;;;;;3.80;3.50;;;;;;;18.70;82.53;96153.53;5015365;28;20521;-63
2021/07/12 00:43:05;;;;;;;3.63;3.33;;;;;;;18.71;82.60;96146.34;5032907;28;20254;-63
2021/07/12 00:45:31;;;;;;;3.97;3.57;;;;;;;18.72;82.73;96151.38;5033168;28;20729;-64
2021/07/12 00:47:57;;;;;;;4.37;3.97;;;;;;;18.74;82.88;96148.44;5033339;28;20411;-63
2021/07/12 00:50:31;;;;;;;5.33;3.77;;;;;;;18.66;83.66;96138.41;5033193;28;20421;-63
2021/07/12 00:52:57;;;;;;;4.30;4.00;;;;;;;18.66;83.79;96138.41;5032797;28;20175;-63
2021/07/12 00:55:52;;;;;;;4.20;3.80;;;;;;;18.60;84.28;96129.69;5030575;28;20449;-63
2021/07/12 00:58:21;;;;;;;3.93;3.60;;;;;;;18.60;84.55;96137.66;5013691;28;20875;-63
2021/07/12 01:00:49;;;;;;;3.70;3.30;;;;;;;18.68;84.22;96134.38;5013292;28;20427;-63
2021/07/12 01:03:16;;;;;;;4.10;3.80;;;;;;;18.66;83.92;96131.19;5012825;28;20459;-64
2021/07/12 01:05:42;;;;;;;4.63;4.33;;;;;;;18.66;83.91;96117.13;5013604;28;20411;-65
2021/07/12 01:08:08;;;;;;;4.50;4.10;;;;;;;18.69;83.64;96124.53;5013371;28;20457;-64
2021/07/12 01:10:34;;;;;;;3.60;3.30;;;;;;;18.64;83.74;96127.25;5014295;28;20428;-64
2021/07/12 01:13:37;;;;;;;4.60;4.07;;;;;;;18.57;83.53;96126.78;5018832;28;20534;-64
2021/07/12 01:16:17;;;;;;;3.93;3.63;;;;;;;18.56;83.88;96125.19;5012198;28;20925;-64
2021/07/12 01:18:51;;;;;;;5.83;4.40;;;;;;;18.52;83.97;96119.63;5013147;28;20403;-64
2021/07/12 01:21:38;;;;;;;4.10;3.80;;;;;;;18.57;83.61;96118.81;5013101;28;20440;-64
2021/07/12 01:24:42;;;;;;;4.37;3.93;;;;;;;18.61;83.66;96127.78;5012703;28;20521;-63
2021/07/12 01:27:26;;;;;;;4.80;4.50;;;;;;;18.57;83.60;96110.81;5013429;28;20410;-64
2021/07/12 01:30:18;;;;;;;4.93;4.53;;;;;;;18.55;84.13;96115.63;4993540;28;20400;-64
2021/07/12 01:33:17;;;;;;;4.70;4.40;;;;;;;18.50;84.05;96097.81;4993301;28;20409;-64
2021/07/12 01:35:55;;;;;;;4.53;4.13;;;;;;;18.47;84.45;96095.75;5007491;28;20517;-64
2021/07/12 01:38:57;;;;;;;5.17;4.70;;;;;;;18.48;83.95;96102.63;5033144;28;20432;-64
2021/07/12 01:41:38;;;;;;;4.17;3.87;;;;;;;18.45;84.36;96109.31;5036723;28;20800;-64
2021/07/12 01:44:35;;;;;;;4.40;4.10;;;;;;;18.47;83.95;96101.06;5036542;28;20455;-64
2021/07/12 01:47:09;;;;;;;4.33;4.03;;;;;;;18.45;84.28;96101.34;5036829;28;20478;-64
2021/07/12 01:50:06;;;;;;;4.77;4.40;;;;;;;18.41;84.17;96089.66;5036504;28;20435;-63
2021/07/12 01:52:42;;;;;;;4.20;3.90;;;;;;;18.42;84.50;96087.81;5022623;28;20452;-64
2021/07/12 01:55:40;;;;;;;4.80;4.40;;;;;;;18.37;84.80;96077.97;5036232;28;20446;-64
2021/07/12 01:58:17;;;;;;;4.40;4.07;;;;;;;18.37;84.79;96087.84;5036368;28;20719;-64
2021/07/12 02:00:45;;;;;;;4.70;4.30;;;;;;;18.37;84.64;96093.16;5036526;28;20468;-65
2021/07/12 02:03:15;;;;;;;4.70;4.30;;;;;;;18.38;84.41;96089.41;5035625;28;20788;-64
2021/07/12 02:05:42;;;;;;;4.07;3.70;;;;;;;18.36;84.48;96089.69;5029761;28;20526;-64
2021/07/12 02:08:09;;;;;;;4.60;4.20;;;;;;;18.38;84.20;96079.56;5016436;28;20887;-64
2021/07/12 02:10:36;;;;;;;4.67;4.27;;;;;;;18.39;84.35;96078.47;5016502;28;20470;-64
2021/07/12 02:13:02;;;;;;;4.23;3.93;;;;;;;18.34;84.49;96091.03;5015915;28;20469;-64
2021/07/12 02:15:28;;;;;;;4.17;3.87;;;;;;;18.32;84.35;96096.66;5016416;28;20436;-64
2021/07/12 02:17:54;;;;;;;3.60;3.40;;;;;;;18.32;84.36;96099.31;5016232;28;20461;-64
2021/07/12 02:20:23;;;;;;;5.03;4.10;;;;;;;18.29;84.65;96094.56;5018589;28;20632;-64
2021/07/12 02:22:50;;;;;;;4.03;3.73;;;;;;;18.29;84.61;96091.91;5033159;28;20218;-64
2021/07/12 02:25:17;;;;;;;4.67;4.27;;;;;;;18.27;84.65;96095.91;5035930;28;20431;-64
2021/07/12 02:27:44;;;;;;;4.13;3.60;;;;;;;18.26;84.79;96105.75;5036066;28;20414;-64
2021/07/12 02:30:10;;;;;;;4.67;4.20;;;;;;;18.22;84.82;96095.94;5035886;28;20406;-64
2021/07/12 02:32:37;;;;;;;4.57;4.27;;;;;;;18.26;84.78;96091.66;5035426;28;20407;-64
2021/07/12 02:35:06;;;;;;;4.47;4.07;;;;;;;18.23;84.54;96084.22;5034345;28;20777;-64
2021/07/12 02:37:37;;;;;;;5.00;4.50;;;;;;;18.22;84.32;96087.97;5015883;28;20769;-64
2021/07/12 02:40:04;;;;;;;3.70;3.40;;;;;;;18.20;84.29;96087.47;5015919;28;20408;-64
2021/07/12 02:42:30;;;;;;;4.50;4.10;;;;;;;18.18;84.25;96092.25;5015501;28;20462;-65
2021/07/12 02:44:58;;;;;;;4.27;3.87;;;;;;;18.16;84.38;96083.75;5014296;28;20577;-64
2021/07/12 02:47:24;;;;;;;3.97;3.60;;;;;;;18.22;83.85;96080.78;5015851;28;20404;-64
2021/07/12 02:49:49;;;;;;;4.53;4.10;;;;;;;18.18;84.22;96077.09;5016624;28;20937;-64
2021/07/12 02:52:28;;;;;;;4.23;3.93;;;;;;;18.16;83.88;96076.59;5034944;28;20164;-64
2021/07/12 02:54:58;;;;;;;4.10;3.80;;;;;;;18.15;83.80;96076.88;5035442;28;20270;-64
2021/07/12 02:57:24;;;;;;;4.57;4.23;;;;;;;18.15;83.51;96088.28;5035482;28;20411;-64
2021/07/12 02:59:50;;;;;;;3.93;3.70;;;;;;;18.10;83.48;96092.88;5035319;28;20414;-64
2021/07/12 03:02:15;;;;;;;4.23;3.93;;;;;;;18.07;83.79;96088.91;5034760;28;20458;-64
2021/07/12 03:04:41;;;;;;;6.07;5.13;;;;;;;18.04;83.97;96088.66;5032782;28;20188;-64
2021/07/12 03:07:20;;;;;;;4.27;3.90;;;;;;;18.00;83.45;96091.09;5015871;28;20562;-64
2021/07/12 03:09:50;;;;;;;4.43;4.03;;;;;;;18.01;83.71;96087.34;5015592;28;20219;-64
2021/07/12 03:12:30;;;;;;;5.27;4.43;;;;;;;18.02;83.48;96077.50;5015110;28;20757;-64
2021/07/12 03:15:04;;;;;;;4.63;4.33;;;;;;;17.95;83.61;96071.72;5032035;28;20441;-64
2021/07/12 03:17:33;;;;;;;4.53;4.23;;;;;;;17.91;83.96;96071.50;5034932;28;20901;-64
2021/07/12 03:20:00;;;;;;;4.30;3.90;;;;;;;17.93;83.62;96069.34;5034980;28;20419;-64
2021/07/12 03:22:26;;;;;;;4.57;4.17;;;;;;;17.89;84.04;96063.00;5034296;28;20975;-64
2021/07/12 03:24:54;;;;;;;4.40;4.00;;;;;;;17.92;83.56;96067.75;5034958;28;20435;-64
2021/07/12 03:27:22;;;;;;;6.00;4.70;;;;;;;17.90;83.50;96063.81;5035306;28;20499;-64
2021/07/12 03:29:49;;;;;;;4.80;4.40;;;;;;;17.92;83.03;96058.97;5016900;28;20420;-64
2021/07/12 03:32:21;;;;;;;5.10;4.70;;;;;;;17.91;83.35;96055.53;5014546;28;20420;-63
2021/07/12 03:34:49;;;;;;;4.47;4.17;;;;;;;17.86;83.33;96060.91;5014680;28;20477;-64
2021/07/12 03:37:14;;;;;;;4.70;4.40;;;;;;;17.86;83.21;96052.13;5014770;28;20427;-64
2021/07/12 03:39:40;;;;;;;5.10;4.70;;;;;;;17.81;83.48;96052.94;5013541;28;20419;-64
2021/07/12 03:42:06;;;;;;;4.67;4.27;;;;;;;17.84;83.45;96054.28;5014324;28;20206;-64
2021/07/12 03:44:31;;;;;;;5.43;4.93;;;;;;;17.79;83.55;96049.78;5031892;28;20206;-64
2021/07/12 03:46:56;;;;;;;5.70;5.20;;;;;;;17.76;83.52;96055.66;5034465;28;20943;-64
2021/07/12 03:49:22;;;;;;;6.60;6.10;;;;;;;17.73;83.87;96042.13;5034465;28;20243;-64
2021/07/12 03:51:50;;;;;;;5.20;4.80;;;;;;;17.79;83.53;96041.78;5025563;28;20545;-63
2021/07/12 03:54:16;;;;;;;5.87;5.47;;;;;;;17.77;83.62;96046.63;5014394;28;20203;-64
2021/07/12 03:56:41;;;;;;;5.00;4.50;;;;;;;17.70;84.14;96050.66;5014784;28;20408;-64
2021/07/12 03:59:07;;;;;;;5.80;5.30;;;;;;;17.67;84.18;96046.69;5014497;28;20172;-64
2021/07/12 04:01:33;;;;;;;5.20;4.80;;;;;;;17.72;84.16;96046.63;5013295;28;20231;-64
2021/07/12 04:03:58;;;;;;;5.20;4.80;;;;;;;17.76;84.14;96041.56;5014224;28;20463;-63
2021/07/12 04:06:24;;;;;;;4.43;4.03;;;;;;;17.77;84.00;96049.28;5015345;28;20177;-64
2021/07/12 04:08:49;;;;;;;4.93;4.60;;;;;;;17.76;83.87;96055.66;5014270;28;20654;-64
2021/07/12 04:11:16;;;;;;;5.57;5.17;;;;;;;17.72;84.38;96041.31;5014231;28;20216;-64
2021/07/12 04:13:42;;;;;;;5.90;4.63;;;;;;;17.69;84.41;96039.22;5013712;28;20284;-64
2021/07/12 04:16:09;;;;;;;5.30;4.80;;;;;;;17.70;84.28;96026.75;5014101;28;20415;-64
2021/07/12 04:18:34;;;;;;;6.40;5.80;;;;;;;17.68;84.81;96021.72;5014089;28;20416;-64
2021/07/12 04:21:00;;;;;;;5.70;5.10;;;;;;;17.68;84.75;96013.75;5013861;28;20575;-64
2021/07/12 04:23:26;;;;;;;5.30;4.87;;;;;;;17.69;85.24;96014.50;5013405;28;20196;-64
2021/07/12 04:25:51;;;;;;;4.87;4.50;;;;;;;17.71;85.67;96012.38;5013917;28;20205;-65
2021/07/12 04:28:16;;;;;;;5.10;4.60;;;;;;;17.77;85.87;96008.59;5014165;28;20172;-64
2021/07/12 04:30:42;;;;;;;5.20;4.80;;;;;;;17.82;86.02;96008.56;5027490;28;20639;-65
2021/07/12 04:33:07;;;;;;;5.20;4.47;;;;;;;17.87;86.33;96003.19;5031702;28;20164;-64
2021/07/12 04:35:33;;;;;;;5.10;4.70;;;;;;;17.86;86.80;96009.59;5033403;28;20183;-65
2021/07/12 04:37:58;;;;;;;4.60;4.20;;;;;;;17.91;87.06;96005.03;5033730;28;20176;-64
2021/07/12 04:40:24;;;;;;;5.03;4.63;;;;;;;17.95;87.75;96008.72;5033479;28;20259;-63
2021/07/12 04:42:49;;;;;;;5.10;4.70;;;;;;;18.01;87.69;96004.16;5032952;28;20282;-64
2021/07/12 04:45:15;;;;;;;4.67;4.27;;;;;;;18.02;88.05;96006.53;5019433;28;20679;-64
2021/07/12 04:47:40;;;;;;;4.90;4.47;;;;;;;18.02;88.28;96001.19;5013638;28;20167;-63
2021/07/12 04:50:07;;;;;;;5.30;4.80;;;;;;;18.05;88.72;96018.44;5013509;28;20635;-63
2021/07/12 04:52:34;;;;;;;4.90;4.50;;;;;;;18.10;88.62;96016.53;5013225;28;20256;-64
2021/07/12 04:55:00;;;;;;;5.57;4.90;;;;;;;18.15;88.50;96024.44;5013653;28;20428;-63
2021/07/12 04:57:26;;;;;;;6.50;4.67;;;;;;;18.11;88.87;96023.44;5013669;28;20404;-63
2021/07/12 04:59:52;;;;;;;4.80;4.50;;;;;;;18.10;89.15;96029.06;5013745;28;20415;-63
2021/07/12 05:02:18;;;;;;;4.40;4.10;;;;;;;18.10;89.06;96021.84;5012986;28;20195;-64
2021/07/12 05:04:43;;;;;;;5.10;4.73;;;;;;;18.15;89.06;96024.44;5013942;28;20788;-65
2021/07/12 05:07:13;;;;;;;7.60;5.10;;;;;;;18.16;89.20;96034.03;5013636;28;20411;-63
2021/07/12 05:09:39;;;;;;;5.53;5.03;;;;;;;18.12;88.83;96035.66;5013273;28;20168;-65
2021/07/12 05:12:08;;;;;;;4.60;4.20;;;;;;;18.21;89.00;96033.16;5012681;28;20412;-65
2021/07/12 05:14:36;;;;;;;4.93;4.53;;;;;;;18.32;88.82;96030.13;5018922;28;20197;-64
2021/07/12 05:17:03;;;;;;;4.90;4.50;;;;;;;18.46;88.23;96031.06;5017385;28;20550;-65
2021/07/12 05:19:28;;;;;;;4.40;4.20;;;;;;;18.54;88.10;96026.19;5017284;28;20408;-65
2021/07/12 05:21:54;;;;;;;5.10;4.60;;;;;;;18.56;88.29;96018.72;5016778;28;20458;-65
2021/07/12 05:24:19;;;;;;;5.27;4.77;;;;;;;18.65;87.86;96007.19;5017448;28;20192;-65
2021/07/12 05:26:45;;;;;;;5.10;4.70;;;;;;;18.66;88.20;96016.72;5017033;28;20195;-66
2021/07/12 05:29:10;;;;;;;5.20;4.70;;;;;;;18.72;88.04;96015.59;5026237;28;20234;-65
2021/07/12 05:31:35;;;;;;;5.13;4.73;;;;;;;18.78;88.07;96016.34;5036232;28;20168;-65
2021/07/12 05:34:01;;;;;;;4.70;4.33;;;;;;;18.78;88.07;96006.50;5036579;28;20539;-65
2021/07/12 05:36:26;;;;;;;4.77;4.47;;;;;;;18.85;88.12;96006.13;5037010;28;20260;-66
2021/07/12 05:38:51;;;;;;;5.47;4.30;;;;;;;18.88;88.04;96001.03;5036656;28;20180;-65
2021/07/12 05:41:17;;;;;;;5.23;4.83;;;;;;;18.89;88.52;96002.63;5030417;28;20255;-65
2021/07/12 05:43:42;;;;;;;6.00;5.50;;;;;;;18.96;88.53;96002.25;5023454;28;20204;-65
2021/07/12 05:46:07;;;;;;;5.43;4.90;;;;;;;18.97;88.37;95999.28;5036497;28;20300;-64
2021/07/12 05:48:33;;;;;;;4.60;4.20;;;;;;;19.04;88.16;96004.28;5035073;28;20172;-64
2021/07/12 05:50:59;;;;;;;5.87;5.30;;;;;;;19.08;88.22;95987.44;5036290;28;20194;-65
2021/07/12 05:53:24;;;;;;;6.20;5.00;;;;;;;19.11;88.54;95989.50;5017511;28;20323;-65
2021/07/12 05:55:49;;;;;;;5.80;4.77;;;;;;;19.19;88.74;95996.06;5016754;28;20177;-65
2021/07/12 05:58:15;;;;;;;4.90;4.50;;;;;;;19.22;88.56;95998.16;5016649;28;20256;-65
2021/07/12 06:00:41;;;;;;;5.33;4.67;;;;;;;19.19;88.24;96014.72;5015574;28;20218;-65
2021/07/12 06:03:06;;;;;;;4.43;4.13;;;;;;;19.26;88.47;96012.47;5015990;28;20201;-65
2021/07/12 06:05:32;;;;;;;6.07;4.97;;;;;;;19.22;88.67;96006.16;5016278;28;20775;-65
2021/07/12 06:07:58;;;;;;;6.67;5.73;;;;;;;19.33;88.23;96002.31;5016462;28;20180;-65
2021/07/12 06:10:23;;;;;;;4.67;4.37;;;;;;;19.38;88.24;95996.88;5016112;28;20172;-65
2021/07/12 06:12:49;;;;;;;5.40;5.00;;;;;;;19.46;88.61;96005.00;5020269;28;20274;-64
2021/07/12 06:15:14;;;;;;;6.10;4.33;;;;;;;19.53;88.37;96014.53;5035992;28;20195;-64
2021/07/12 06:17:40;;;;;;;5.57;5.00;;;;;;;19.54;88.39;96003.56;5035989;28;20164;-64
2021/07/12 06:20:08;;;;;;;4.17;3.87;;;;;;;19.52;87.75;96010.25;5036019;28;20203;-64
2021/07/12 06:22:34;;;;;;;4.67;4.37;;;;;;;19.58;88.19;95996.56;5035486;28;20192;-64
2021/07/12 06:25:00;;;;;;;3.80;3.50;;;;;;;19.67;88.29;95997.50;5035451;28;20484;-65
2021/07/12 06:27:26;;;;;;;3.80;3.50;;;;;;;19.82;88.47;95991.88;5032410;28;20416;-64
2021/07/12 06:29:51;;;;;;;6.37;4.30;;;;;;;19.88;88.56;95982.72;5030407;28;20429;-65
2021/07/12 06:32:17;;;;;;;5.10;3.90;;;;;;;19.98;88.57;95977.22;5034124;28;20518;-65
2021/07/12 06:34:42;;;;;;;4.00;3.70;;;;;;;20.08;88.23;95971.69;5035558;28;20208;-65
2021/07/12 06:37:07;;;;;;;3.97;3.57;;;;;;;20.07;87.73;95970.13;5035702;28;20175;-65
2021/07/12 06:39:33;;;;;;;3.50;3.20;;;;;;;20.21;87.49;95970.97;5035965;28;20754;-65
2021/07/12 06:41:58;;;;;;;3.90;3.50;;;;;;;20.24;86.57;95969.56;5035247;28;20214;-65
2021/07/12 06:44:24;;;;;;;5.10;3.90;;;;;;;20.27;87.20;95964.41;5018456;28;20671;-64
2021/07/12 06:46:50;;;;;;;4.80;3.13;;;;;;;20.32;86.92;95974.22;5015903;28;20627;-64
2021/07/12 06:49:15;;;;;;;4.57;3.47;;;;;;;20.35;85.16;95971.75;5015739;28;20252;-64
2021/07/12 06:51:41;;;;;;;4.13;3.17;;;;;;;20.47;84.60;95965.91;5015266;28;20523;-65
2021/07/12 06:54:07;;;;;;;3.17;2.97;;;;;;;20.55;84.45;95969.75;5015652;28;20188;-64
2021/07/12 06:56:33;;;;;;;4.70;3.70;;;;;;;20.65;84.54;95961.53;5015708;28;20556;-63
2021/07/12 06:58:58;;;;;;;3.53;3.23;;;;;;;20.75;84.39;95959.44;5030350;28;20176;-64
2021/07/12 07:01:24;;;;;;;3.77;2.87;;;;;;;20.86;84.71;95958.16;5035138;28;20777;-64
2021/07/12 07:03:49;;;;;;;3.60;3.27;;;;;;;20.94;85.19;95945.97;5035026;28;20253;-64
2021/07/12 07:06:15;;;;;;;5.80;4.10;;;;;;;20.95;84.27;95943.00;5035149;28;20495;-64
2021/07/12 07:08:40;;;;;;;3.17;2.83;;;;;;;21.03;84.54;95931.63;5035242;28;20178;-63
2021/07/12 07:11:05;;;;;;;4.03;3.63;;;;;;;21.10;84.35;95932.00;5035167;28;20222;-64
2021/07/12 07:13:31;;;;;;;3.73;3.40;;;;;;;21.10;83.90;95929.31;5033799;28;20192;-65
2021/07/12 07:15:57;;;;;;;3.37;3.00;;;;;;;21.26;83.91;95927.88;5034773;28;20206;-64
2021/07/12 07:18:22;;;;;;;3.67;3.17;;;;;;;21.33;83.71;95920.22;5029182;28;20547;-64
2021/07/12 07:20:48;;;;;;;2.93;2.70;;;;;;;21.39;83.05;95921.69;5015147;28;20177;-65
2021/07/12 07:23:13;;;;;;;3.47;3.17;;;;;;;21.38;82.58;95914.75;5014025;28;20192;-65
2021/07/12 07:25:39;;;;;;;3.33;3.03;;;;;;;21.51;82.78;95918.44;5014643;28;20653;-65
2021/07/12 07:28:05;;;;;;;3.10;2.80;;;;;;;21.58;82.54;95915.34;5013905;28;20177;-65
2021/07/12 07:30:30;;;;;;;4.30;2.90;;;;;;;21.67;82.92;95903.59;5014195;28;20196;-65
2021/07/12 07:32:56;;;;;;;2.57;2.37;;;;;;;21.72;82.82;95903.47;5021278;28;20541;-66
2021/07/12 07:35:22;;;;;;;7.47;2.70;;;;;;;21.72;82.35;95889.31;5032005;28;20514;-65
2021/07/12 07:37:47;;;;;;;2.63;2.30;;;;;;;21.62;81.15;95884.19;5013316;28;20639;-66
2021/07/12 07:40:15;;;;;;;3.00;2.80;;;;;;;21.67;80.69;95874.16;5014250;28;20168;-65
2021/07/12 07:42:41;;;;;;;2.77;2.13;;;;;;;21.76;81.02;95877.66;5014207;28;20199;-66
2021/07/12 07:45:09;;;;;;;2.90;2.47;;;;;;;21.80;80.68;95862.59;5014018;28;20800;-66
2021/07/12 07:47:34;;;;;;;2.53;2.30;;;;;;;21.74;80.48;95863.03;5013983;28;20179;-66
2021/07/12 07:50:00;;;;;;;3.00;2.80;;;;;;;21.77;80.41;95859.72;5013313;28;20491;-66
2021/07/12 07:52:25;;;;;;;2.60;2.40;;;;;;;21.92;80.02;95862.81;5014156;28;20215;-66
2021/07/12 07:54:51;;;;;;;2.80;2.20;;;;;;;21.94;80.34;95865.97;5013235;28;20658;-66
2021/07/12 07:57:26;;;;;;;2.43;2.27;;;;;;;21.95;79.43;95870.25;5090911;27;20510;-67
2021/07/12 07:59:51;;;;;;;3.00;2.30;;;;;;;21.93;78.56;95866.28;5089435;28;20438;-67
2021/07/12 08:02:17;;;;;;;2.07;1.90;;;;;;;22.01;78.36;95868.97;5088760;28;20182;-66
2021/07/12 08:04:42;;;;;;;2.60;2.40;;;;;;;22.12;78.40;95861.47;5076936;28;20191;-66
2021/07/12 08:07:09;;;;;;;2.80;2.20;;;;;;;22.17;77.54;95853.31;5069707;28;20205;-66
2021/07/12 08:09:35;;;;;;;2.20;2.10;;;;;;;22.22;77.96;95863.84;5069958;28;20216;-67
2021/07/12 08:12:00;;;;;;;2.30;2.10;;;;;;;22.23;78.10;95857.41;5069576;28;20801;-67
2021/07/12 08:14:26;;;;;;;1.97;1.87;;;;;;;22.32;77.23;95853.63;5070329;28;20187;-67
2021/07/12 08:16:51;;;;;;;2.37;2.17;;;;;;;22.33;76.27;95844.53;5070142;28;20737;-67
2021/07/12 08:19:17;;;;;;;4.37;2.37;;;;;;;22.37;76.02;95850.03;5070225;28;20220;-67
2021/07/12 08:21:43;;;;;;;3.77;3.47;;;;;;;22.42;76.20;95852.56;5068359;28;20672;-67
2021/07/12 08:24:09;;;;;;;2.97;2.17;;;;;;;22.48;75.37;95848.66;5067512;28;20229;-67
2021/07/12 08:26:35;;;;;;;2.60;2.47;;;;;;;22.54;75.34;95842.00;5069075;28;20444;-67
2021/07/12 08:29:00;;;;;;;2.70;2.50;;;;;;;22.67;75.03;95832.28;5069179;28;20566;-67
2021/07/12 08:31:25;;;;;;;3.10;2.23;;;;;;;22.79;74.38;95824.41;5070239;28;20167;-66
2021/07/12 08:33:51;;;;;;;1.90;1.80;;;;;;;22.85;75.10;95829.28;5069346;28;20210;-66
2021/07/12 08:36:18;;;;;;;4.60;2.60;;;;;;;22.84;74.74;95827.72;5065744;28;20179;-67
2021/07/12 08:38:44;;;;;;;2.37;2.20;;;;;;;22.99;74.22;95821.09;5055018;28;20645;-66
2021/07/12 08:41:09;;;;;;;3.53;2.03;;;;;;;22.98;74.56;95820.31;5049824;28;20423;-66
2021/07/12 08:43:35;;;;;;;2.43;2.20;;;;;;;22.90;72.79;95828.38;5048245;28;20188;-66
2021/07/12 08:46:00;;;;;;;2.30;2.10;;;;;;;23.01;73.21;95811.63;5047842;28;20190;-67
2021/07/12 08:48:26;;;;;;;2.53;2.33;;;;;;;23.14;72.90;95796.47;5049354;28;20708;-67
2021/07/12 08:50:51;;;;;;;2.40;2.20;;;;;;;23.22;72.75;95790.31;5049881;28;20190;-67
2021/07/12 08:53:17;;;;;;;1.97;1.87;;;;;;;23.21;73.67;95799.44;5065697;28;20178;-67
2021/07/12 08:55:44;;;;;;;2.40;1.63;;;;;;;23.32;72.82;95814.13;5069434;28;20191;-66
2021/07/12 08:58:23;;;;;;;3.10;2.70;;;;;;;23.43;72.54;95824.19;5069421;28;20206;-67
2021/07/12 09:00:52;;;;;;;3.30;2.87;;;;;;;23.57;72.71;95823.97;5069124;28;20480;-66
2021/07/12 09:03:23;;;;;;;3.17;2.60;;;;;;;23.66;71.89;95822.06;5051614;28;20414;-66
2021/07/12 09:05:56;;;;;;;3.17;2.10;;;;;;;23.71;72.48;95818.41;5063261;28;20429;-67
2021/07/12 09:08:40;;;;;;;3.57;2.10;;;;;;;23.82;71.59;95820.44;5058157;28;20410;-67
2021/07/12 09:11:11;;;;;;;1.70;1.60;;;;;;;23.88;69.83;95823.72;5054827;28;20394;-64
2021/07/12 09:13:56;;;;;;;1.63;1.53;;;;;;;23.95;70.18;95827.44;5035616;28;20427;-64
2021/07/12 09:16:32;;;;;;;1.87;1.70;;;;;;;24.11;71.01;95815.09;5035838;28;20453;-64
2021/07/12 09:19:06;;;;;;;2.40;2.30;;;;;;;24.23;70.50;95814.38;5036357;28;20443;-64
2021/07/12 09:21:37;;;;;;;4.80;2.30;;;;;;;24.23;69.36;95812.50;5035643;28;20441;-64
2021/07/12 09:24:34;;;;;;;2.00;1.90;;;;;;;24.30;68.80;95820.81;5035911;28;20437;-64
2021/07/12 09:27:09;;;;;;;2.07;1.97;;;;;;;24.43;68.82;95825.16;5034994;28;20502;-64
2021/07/12 09:29:38;;;;;;;2.97;1.70;;;;;;;24.41;68.48;95823.91;5035946;28;20438;-65
2021/07/12 09:32:06;;;;;;;1.67;1.57;;;;;;;24.49;68.92;95826.53;5034089;28;20461;-64
2021/07/12 09:34:32;;;;;;;1.60;1.50;;;;;;;24.55;67.21;95831.75;5035712;28;20437;-64
2021/07/12 09:36:57;;;;;;;2.13;1.93;;;;;;;24.75;67.51;95820.25;5035632;28;20446;-62
2021/07/12 09:39:32;;;;;;;1.70;1.60;;;;;;;24.85;67.63;95817.94;5035789;28;20881;-61
2021/07/12 09:42:01;;;;;;;2.10;1.90;;;;;;;24.85;65.46;95825.19;5046585;28;20175;-62
2021/07/12 09:44:28;;;;;;;3.00;1.90;;;;;;;24.94;65.73;95826.72;5039598;28;20438;-62
2021/07/12 09:46:55;;;;;;;2.83;1.57;;;;;;;25.16;66.59;95822.88;5035536;28;20414;-62
2021/07/12 09:49:24;;;;;;;2.00;1.90;;;;;;;25.25;65.42;95812.81;5047318;28;20848;-62
2021/07/12 09:51:55;;;;;;;1.80;1.70;;;;;;;25.45;66.15;95812.75;5055062;28;20467;-62
2021/07/12 09:54:27;;;;;;;5.07;1.87;;;;;;;25.52;65.36;95804.16;5055093;28;20438;-62
2021/07/12 09:56:55;;;;;;;2.10;1.50;;;;;;;25.63;63.90;95793.75;5055083;28;20449;-62
2021/07/12 09:59:21;;;;;;;1.70;1.60;;;;;;;25.74;61.90;95795.66;5055321;28;20452;-61
2021/07/12 10:01:55;;;;;;;1.70;1.60;;;;;;;25.73;61.16;95783.31;5053512;28;20803;-62
2021/07/12 10:04:24;;;;;;;1.60;1.50;;;;;;;25.90;63.29;95783.09;5040730;28;20438;-62
2021/07/12 10:06:52;;;;;;;1.80;1.70;;;;;;;26.10;61.57;95776.84;5035024;28;20430;-62
2021/07/12 10:09:22;;;;;;;2.10;2.00;;;;;;;26.27;62.64;95771.19;5035019;28;20403;-62
2021/07/12 10:11:50;;;;;;;1.80;1.70;;;;;;;26.47;62.04;95787.56;5037156;28;20909;-62
2021/07/12 10:14:16;;;;;;;1.97;1.60;;;;;;;26.48;60.39;95778.34;5048902;28;20434;-62
2021/07/12 10:16:42;;;;;;;2.20;1.60;;;;;;;26.60;61.46;95783.72;5054852;28;20494;-62
2021/07/12 10:19:07;;;;;;;1.87;1.60;;;;;;;26.69;60.71;95779.75;5053925;28;20916;-62
2021/07/12 10:21:35;;;;;;;1.77;1.67;;;;;;;26.80;59.16;95780.06;5054326;28;20167;-62
2021/07/12 10:24:02;;;;;;;1.77;1.53;;;;;;;26.83;60.13;95774.75;5054608;28;20248;-62
2021/07/12 10:26:56;;;;;;;2.63;1.93;;;;;;;26.82;59.67;95780.50;5054671;28;20481;-63
2021/07/12 10:29:30;;;;;;;1.60;1.50;;;;;;;26.88;59.08;95781.84;5037500;28;20762;-62
2021/07/12 10:32:00;;;;;;;1.90;1.70;;;;;;;26.97;58.41;95790.56;5034361;28;20425;-62
2021/07/12 10:34:31;;;;;;;1.80;1.70;;;;;;;27.01;58.49;95786.06;5034499;28;20452;-62
2021/07/12 10:37:14;;;;;;;1.47;1.37;;;;;;;27.06;57.88;95785.81;5034477;28;20446;-62
2021/07/12 10:40:04;;;;;;;1.80;1.70;;;;;;;27.09;58.02;95798.59;5034573;28;20407;-62
2021/07/12 10:42:42;;;;;;;1.73;1.63;;;;;;;27.05;57.28;95795.81;5042050;28;20418;-62
2021/07/12 10:45:13;;;;;;;1.63;1.53;;;;;;;27.04;56.88;95796.94;5054169;28;20479;-62
2021/07/12 10:47:49;;;;;;;1.60;1.50;;;;;;;26.99;55.96;95802.59;5054289;28;20398;-62
2021/07/12 10:50:33;;;;;;;1.87;1.77;;;;;;;27.02;54.76;95796.50;5051431;28;20414;-63
2021/07/12 10:53:02;;;;;;;1.60;1.57;;;;;;;26.89;57.08;95788.78;5034183;28;20390;-62
2021/07/12 10:55:30;;;;;;;1.53;1.43;;;;;;;27.04;56.61;95796.16;5034104;28;21030;-63
2021/07/12 10:58:32;;;;;;;2.10;2.00;;;;;;;26.98;55.86;95786.72;5034507;28;20402;-63
2021/07/12 11:01:00;;;;;;;2.40;2.23;;;;;;;27.01;56.63;95783.38;5034174;28;20453;-62
2021/07/12 11:03:51;;;;;;;1.60;1.50;;;;;;;26.84;56.08;95780.94;5033645;28;20467;-62
2021/07/12 11:06:20;;;;;;;1.60;1.40;;;;;;;26.70;56.52;95786.75;5046566;28;20418;-62
2021/07/12 11:08:56;;;;;;;1.90;1.80;;;;;;;26.77;57.67;95792.34;5053959;28;20397;-63
2021/07/12 11:11:22;;;;;;;1.93;1.83;;;;;;;26.89;57.32;95796.88;5053968;28;20416;-63
2021/07/12 11:14:07;;;;;;;1.87;1.77;;;;;;;26.98;56.64;95789.44;5053224;28;20430;-63
2021/07/12 11:16:41;;;;;;;1.97;1.67;;;;;;;27.03;55.73;95786.50;5053765;28;20191;-62
2021/07/12 11:19:32;;;;;;;2.50;1.70;;;;;;;27.05;56.05;95781.56;5053600;28;20527;-63
2021/07/12 11:22:13;;;;;;;1.90;1.70;;;;;;;27.15;56.02;95789.94;5033569;28;20482;-63
2021/07/12 11:24:58;;;;;;;2.30;2.07;;;;;;;27.20;58.04;95794.28;5033907;28;20434;-62
2021/07/12 11:27:37;;;;;;;2.80;1.73;;;;;;;27.19;52.01;95787.31;5032396;28;20430;-63
2021/07/12 11:30:25;;;;;;;1.73;1.63;;;;;;;27.24;54.04;95789.75;5033499;28;20410;-62
2021/07/12 11:32:50;;;;;;;1.80;1.70;;;;;;;27.37;55.89;95786.69;5033296;28;20900;-62
2021/07/12 11:35:16;;;;;;;2.30;1.53;;;;;;;27.36;54.61;95782.41;5041903;28;20441;-62
2021/07/12 11:37:41;;;;;;;2.00;1.90;;;;;;;27.68;55.58;95772.44;5053579;28;20194;-62
2021/07/12 11:40:08;;;;;;;2.03;1.80;;;;;;;27.80;54.38;95766.94;5053435;28;20539;-63
2021/07/12 11:42:39;;;;;;;1.90;1.80;;;;;;;27.84;54.46;95759.69;5051512;28;20180;-63
2021/07/12 11:45:10;;;;;;;4.03;2.07;;;;;;;27.95;54.08;95758.06;5053053;28;20418;-62